Portada
METAR-TAF:

METAR-TAF

Aeroports :

Kangirsuk, Quebec, Canadà

latitud: 60-01N, longitud: 070-00W, altitud: 117 m

Observació

L'informe es va fer fa 18 minuts, a les 15:00 UTC
Vent 2 kt amb direcció variable
Temperatura 5°C
Humitat 93%
Pressió 1024 hPa
Visibilitat: 24.1 km
Cel ennuvolat a una alçada de 16000 ft

METAR: CYAS 171500Z VRB02KT 15SM BKN160 05/04 A3023 RMK AC7 SLP248

Hora: 11:18 (15:18 UTC)

Pronòstic

L'informe es va fer fa 1 hora i 38 minuts, a les 13:40 UTC
Pronòstic vàlid del 17 a les 14 UTC al 17 a les 21 UTC
Vent 3 kt amb direcció variable
Visibilitat: 10 km
Escasses núvols a una alçada de 3000 ft
Núvols disperses a una alçada de 20000 ft
Evolucionant progressivament
l' 17 a les 16 UTC al 17 a les 18 UTC
Vent 12 kt del Est/Sud-Est

TAF: CYAS 171340Z 1714/1721 VRB03KT P6SM FEW030 SCT200 BECMG 1716/1718 12012KT RMK NXT FCST WILL BE ISSUED AT 181345Z

Observacions i pronòstics meteorològics de més de 4000 aeroports (METAR i TAF).

Les estacions disponibles són els punts grocs i vermells al mapa.

Posi el ratolí al punt desitjat per veure el nom de l'estació.

Feu clic per veure les observacions i els pronòstics meteorològics.

Per canviar el mapa: feu clic els botons verds amb una creu de color negre per apropar; al botó verd amb un guió per allunyar la imatge; o en les fletxes verdes per a mapes adjacents.


METAR-TAF: